Terminal Aerodrome Forecast
Issued by NWS Wilmington, OH

Current Version | Previous Version | Graphics & Text | Print | Product List | Glossary On
Versions: 1 2 3 4 5 6 7 8 9 10 11 12 13 14
413
FTUS41 KILN 231740
TAFILN
TAF
KILN 231740Z 2318/2418 12010KT P6SM SCT120
     FM232300 14006KT P6SM OVC100
     FM240500 19008KT P6SM BKN150 WS020/21040KT
     FM241400 20011KT P6SM OVC035
     FM241600 21014G22KT P6SM OVC035=

USA.gov is the U.S. government's official web portal to all federal, state and local government web resources and services.